Time;durP1;ratioP1;P1;durP2;ratioP2;P2;SDS_P1;SDS_P2;PMS_P1;PMS_P2;Temp;Humidity;BMP_temperature;BMP_pressure;BME280_temperature;BME280_humidity;BME280_pressure;Samples;Min_cycle;Max_cycle;Signal;HPM_P1;HPM_P2
2024/03/28 00:01:44;;;;;;;2.93;1.43;;;4.20;17.60;;;;;;5029834;28;20619;-69
2024/03/28 00:04:09;;;;;;;2.27;1.20;;;4.10;17.40;;;;;;5029920;28;20196;-68
2024/03/28 00:06:35;;;;;;;3.17;1.50;;;4.00;17.50;;;;;;5031142;28;20220;-68
2024/03/28 00:09:00;;;;;;;2.40;1.33;;;4.00;16.60;;;;;;5030936;28;20265;-69
2024/03/28 00:11:26;;;;;;;2.40;1.20;;;4.10;16.00;;;;;;5029751;28;20271;-69
2024/03/28 00:13:52;;;;;;;2.70;1.37;;;4.10;15.40;;;;;;5031186;28;20192;-70
2024/03/28 00:16:17;;;;;;;4.37;1.70;;;4.10;15.30;;;;;;5029713;28;21001;-67
2024/03/28 00:18:43;;;;;;;2.30;1.20;;;4.10;15.10;;;;;;5034706;28;20178;-67
2024/03/28 00:21:08;;;;;;;2.23;1.33;;;4.10;15.30;;;;;;5033699;28;20176;-68
2024/03/28 00:23:34;;;;;;;2.20;1.30;;;3.90;15.20;;;;;;5034781;28;20168;-68
2024/03/28 00:26:00;;;;;;;2.10;1.20;;;3.90;17.50;;;;;;5034577;28;20195;-68
2024/03/28 00:28:26;;;;;;;2.50;1.33;;;3.90;17.10;;;;;;5034607;28;20179;-68
2024/03/28 00:30:52;;;;;;;2.53;1.30;;;3.80;16.60;;;;;;5034607;28;20474;-69
2024/03/28 00:33:19;;;;;;;2.50;1.27;;;3.80;17.00;;;;;;5034527;28;20505;-68
2024/03/28 00:35:49;;;;;;;3.22;1.42;;;3.70;16.80;;;;;;5034315;28;20234;-68
2024/03/28 00:38:16;;;;;;;2.47;1.42;;;3.70;16.80;;;;;;5034468;28;20175;-69
2024/03/28 00:40:52;;;;;;;2.72;1.33;;;3.70;17.90;;;;;;5034495;28;20167;-68
2024/03/28 00:43:18;;;;;;;2.97;1.75;;;3.70;18.10;;;;;;5034500;28;20643;-68
2024/03/28 00:45:45;;;;;;;3.38;1.70;;;3.70;18.30;;;;;;5034369;28;20718;-68
2024/03/28 00:48:11;;;;;;;2.65;1.33;;;3.60;17.80;;;;;;5034071;28;20256;-69
2024/03/28 00:50:37;;;;;;;4.50;1.95;;;3.60;17.90;;;;;;5034338;28;20273;-69
2024/03/28 00:53:03;;;;;;;3.20;1.97;;;3.60;18.10;;;;;;5034312;28;20220;-69
2024/03/28 00:55:29;;;;;;;2.92;2.00;;;3.60;18.80;;;;;;5034284;28;20486;-69
2024/03/28 00:57:55;;;;;;;2.90;1.40;;;3.50;19.20;;;;;;5034449;28;20170;-68
2024/03/28 01:00:21;;;;;;;2.40;1.53;;;3.50;19.20;;;;;;5034383;28;20181;-69
2024/03/28 01:02:46;;;;;;;2.53;1.65;;;3.40;19.10;;;;;;5032859;28;20298;-69
2024/03/28 01:05:12;;;;;;;2.47;1.70;;;3.40;19.10;;;;;;5034486;28;20267;-69
2024/03/28 01:07:38;;;;;;;2.57;1.93;;;3.40;19.10;;;;;;5033910;28;20215;-69
2024/03/28 01:10:04;;;;;;;3.83;1.97;;;3.40;19.10;;;;;;5034123;28;20196;-69
2024/03/28 01:12:29;;;;;;;3.70;1.90;;;3.40;19.10;;;;;;5034091;28;20192;-69
2024/03/28 01:14:55;;;;;;;3.05;2.15;;;3.40;18.90;;;;;;5034022;28;20415;-68
2024/03/28 01:17:21;;;;;;;3.85;2.10;;;3.40;18.00;;;;;;5033886;28;20611;-69
2024/03/28 01:19:47;;;;;;;3.10;2.33;;;3.40;18.30;;;;;;5033726;28;20354;-69
2024/03/28 01:22:13;;;;;;;3.20;2.20;;;3.50;18.30;;;;;;5033989;28;20198;-69
2024/03/28 01:24:38;;;;;;;4.50;3.40;;;3.50;17.90;;;;;;5033773;28;20183;-69
2024/03/28 01:27:04;;;;;;;4.77;2.93;;;3.50;18.10;;;;;;5033586;28;20214;-69
2024/03/28 01:29:29;;;;;;;3.77;2.97;;;3.50;18.50;;;;;;5031584;28;20180;-68
2024/03/28 01:31:55;;;;;;;5.67;3.30;;;3.50;18.50;;;;;;5033586;28;20215;-68
2024/03/28 01:34:21;;;;;;;3.97;2.80;;;3.60;18.30;;;;;;5033712;28;20176;-68
2024/03/28 01:36:46;;;;;;;5.80;3.20;;;3.60;17.70;;;;;;5033465;28;20207;-68
2024/03/28 01:39:12;;;;;;;5.03;3.53;;;3.60;17.30;;;;;;5033385;28;20422;-68
2024/03/28 01:41:38;;;;;;;4.53;2.93;;;3.60;16.50;;;;;;5033454;28;20180;-68
2024/03/28 01:44:04;;;;;;;7.10;3.88;;;3.60;17.20;;;;;;5032183;28;20181;-69
2024/03/28 01:46:30;;;;;;;4.63;2.87;;;3.50;16.80;;;;;;5033224;28;20187;-68
2024/03/28 01:48:56;;;;;;;8.73;4.53;;;3.50;16.70;;;;;;5033084;28;20269;-68
2024/03/28 01:51:22;;;;;;;4.30;3.00;;;3.50;16.80;;;;;;5033201;28;20189;-68
2024/03/28 01:53:49;;;;;;;8.00;4.50;;;3.40;17.40;;;;;;5033245;28;20181;-68
2024/03/28 01:56:16;;;;;;;6.45;3.85;;;3.50;17.30;;;;;;5033063;28;20474;-67
2024/03/28 01:58:43;;;;;;;6.47;5.68;;;3.40;17.50;;;;;;5032745;28;20176;-68
2024/03/28 02:01:08;;;;;;;5.43;4.45;;;3.40;17.50;;;;;;5032878;28;20262;-68
2024/03/28 02:03:34;;;;;;;5.90;4.43;;;3.40;17.80;;;;;;5032914;28;20634;-68
2024/03/28 02:05:59;;;;;;;8.57;4.90;;;3.40;18.00;;;;;;5032782;28;20195;-68
2024/03/28 02:08:29;;;;;;;6.90;5.23;;;3.30;18.10;;;;;;5032642;28;20261;-68
2024/03/28 02:10:56;;;;;;;6.68;4.68;;;3.30;18.00;;;;;;5032903;28;20176;-69
2024/03/28 02:13:23;;;;;;;6.32;4.30;;;3.30;18.60;;;;;;5032858;28;20173;-68
2024/03/28 02:15:48;;;;;;;6.60;4.63;;;3.20;18.60;;;;;;5033084;28;20741;-69
2024/03/28 02:18:18;;;;;;;6.20;4.77;;;3.20;18.60;;;;;;5032529;28;20217;-67
2024/03/28 02:20:44;;;;;;;6.47;4.63;;;3.20;17.40;;;;;;5032631;28;20259;-67
2024/03/28 02:23:10;;;;;;;6.73;4.60;;;3.20;17.10;;;;;;5032657;28;20179;-66
2024/03/28 02:25:35;;;;;;;5.20;4.20;;;3.20;16.20;;;;;;5032430;28;20221;-67
2024/03/28 02:28:01;;;;;;;5.60;4.37;;;3.30;14.80;;;;;;5032262;28;20981;-67
2024/03/28 02:30:27;;;;;;;4.77;3.37;;;3.30;13.60;;;;;;5032443;28;20209;-67
2024/03/28 02:32:52;;;;;;;4.13;3.55;;;3.30;13.30;;;;;;5032385;28;20237;-67
2024/03/28 02:35:18;;;;;;;5.70;4.33;;;3.30;14.00;;;;;;5031977;28;20204;-67
2024/03/28 02:37:43;;;;;;;5.90;4.40;;;3.10;14.70;;;;;;5032043;28;20181;-67
2024/03/28 02:40:10;;;;;;;4.10;3.40;;;3.10;14.70;;;;;;5031464;28;20241;-67
2024/03/28 02:42:35;;;;;;;5.03;3.05;;;3.00;14.60;;;;;;5032142;28;20670;-67
2024/03/28 02:45:01;;;;;;;5.90;3.50;;;3.00;14.60;;;;;;5032113;28;20188;-68
2024/03/28 02:47:26;;;;;;;4.63;3.53;;;3.10;14.70;;;;;;5031825;28;20276;-67
2024/03/28 02:49:52;;;;;;;6.10;4.37;;;3.10;14.30;;;;;;5031998;28;20656;-67
2024/03/28 02:52:17;;;;;;;6.17;4.63;;;3.10;14.70;;;;;;5032169;28;20179;-67
2024/03/28 02:54:43;;;;;;;4.90;4.23;;;3.20;14.70;;;;;;5031974;28;20252;-68
2024/03/28 02:57:20;;;;;;;5.87;4.50;;;3.20;14.80;;;;;;5032064;28;20305;-67
2024/03/28 02:59:46;;;;;;;4.78;2.95;;;3.30;13.60;;;;;;5031662;28;20177;-67
2024/03/28 03:02:11;;;;;;;5.13;3.63;;;3.40;10.80;;;;;;5031777;28;20171;-67
2024/03/28 03:04:37;;;;;;;5.23;4.07;;;3.40;11.10;;;;;;5031875;28;20550;-67
2024/03/28 03:07:02;;;;;;;6.00;4.10;;;3.40;10.80;;;;;;5031787;28;20271;-67
2024/03/28 03:09:28;;;;;;;4.63;3.10;;;3.40;11.00;;;;;;5031793;28;20231;-67
2024/03/28 03:11:53;;;;;;;5.10;3.23;;;3.40;10.80;;;;;;5031901;28;20177;-68
2024/03/28 03:14:19;;;;;;;5.90;3.20;;;3.30;11.20;;;;;;5033134;28;20238;-68
2024/03/28 03:16:45;;;;;;;4.87;3.60;;;3.30;12.00;;;;;;5033899;28;20523;-67
2024/03/28 03:19:11;;;;;;;5.40;4.20;;;3.20;12.40;;;;;;5031792;28;20176;-68
2024/03/28 03:21:36;;;;;;;5.18;2.63;;;3.20;12.20;;;;;;5031734;28;20171;-68
2024/03/28 03:24:02;;;;;;;4.70;3.43;;;3.10;12.50;;;;;;5031617;28;20218;-68
2024/03/28 03:26:30;;;;;;;6.05;3.70;;;3.10;12.50;;;;;;5031462;28;20212;-68
2024/03/28 03:34:36;;;;;;;3.47;2.67;;;3.20;12.10;;;;;;5031644;28;20233;-67
2024/03/28 03:37:09;;;;;;;4.18;3.20;;;3.20;11.90;;;;;;5065277;23;20231;-70
2024/03/28 03:39:35;;;;;;;4.97;3.85;;;3.20;11.80;;;;;;5052018;28;20245;-71
2024/03/28 03:42:01;;;;;;;4.75;3.03;;;3.20;11.60;;;;;;5050386;28;20639;-71
2024/03/28 03:44:27;;;;;;;3.47;2.53;;;3.20;12.00;;;;;;5051668;28;20183;-69
2024/03/28 03:46:52;;;;;;;5.50;3.30;;;3.20;12.00;;;;;;5051524;28;20420;-70
2024/03/28 03:49:18;;;;;;;5.57;3.33;;;3.30;11.40;;;;;;5051480;28;20171;-70
2024/03/28 03:51:43;;;;;;;5.67;3.30;;;3.30;11.80;;;;;;5052758;28;20179;-70
2024/03/28 03:54:09;;;;;;;3.67;2.93;;;3.30;11.70;;;;;;5055666;28;20192;-70
2024/03/28 03:56:35;;;;;;;5.20;3.50;;;3.30;10.60;;;;;;5054232;28;20218;-70
2024/03/28 03:59:01;;;;;;;5.33;3.13;;;3.20;11.50;;;;;;5055654;28;20174;-70
2024/03/28 04:01:27;;;;;;;4.45;2.97;;;3.20;11.90;;;;;;5055834;28;20254;-69
2024/03/28 04:03:53;;;;;;;4.70;3.23;;;3.20;12.20;;;;;;5055725;28;20305;-70
2024/03/28 04:06:18;;;;;;;4.10;3.10;;;3.10;12.20;;;;;;5055459;28;20190;-69
2024/03/28 04:08:44;;;;;;;3.90;3.07;;;3.10;12.50;;;;;;5055234;28;20411;-70
2024/03/28 04:11:09;;;;;;;4.40;3.33;;;3.10;12.80;;;;;;5055280;28;20191;-69
2024/03/28 04:13:35;;;;;;;4.17;2.70;;;3.20;12.40;;;;;;5055264;28;20529;-70
2024/03/28 04:16:00;;;;;;;4.67;2.87;;;3.20;11.70;;;;;;5055121;28;20589;-70
2024/03/28 04:18:26;;;;;;;5.63;2.73;;;3.20;11.70;;;;;;5055328;28;20172;-70
2024/03/28 04:20:53;;;;;;;5.53;2.53;;;3.20;11.30;;;;;;5055215;28;20598;-70
2024/03/28 04:23:19;;;;;;;4.20;2.90;;;3.20;10.60;;;;;;5055036;28;20168;-70
2024/03/28 04:25:55;;;;;;;3.43;2.20;;;3.20;10.50;;;;;;5054844;28;20644;-70
2024/03/28 04:28:21;;;;;;;4.03;3.00;;;3.20;10.50;;;;;;5054680;28;20180;-69
2024/03/28 04:30:46;;;;;;;4.43;2.77;;;3.30;10.10;;;;;;5055249;28;20643;-70
2024/03/28 04:33:12;;;;;;;5.17;3.43;;;3.30;9.90;;;;;;5055141;28;20222;-69
2024/03/28 04:35:38;;;;;;;3.30;2.50;;;3.30;9.60;;;;;;5055395;28;20295;-70
2024/03/28 04:38:04;;;;;;;3.40;2.60;;;3.30;9.70;;;;;;5055925;28;20300;-71
2024/03/28 04:40:30;;;;;;;4.10;2.45;;;3.20;9.80;;;;;;5055975;28;20196;-70
2024/03/28 04:42:56;;;;;;;4.15;2.05;;;3.20;9.40;;;;;;5055425;28;20213;-70
2024/03/28 04:45:22;;;;;;;3.57;2.27;;;3.30;8.90;;;;;;5054768;28;20262;-70
2024/03/28 04:47:49;;;;;;;2.90;2.20;;;3.30;8.70;;;;;;5054402;28;20311;-70
2024/03/28 04:50:15;;;;;;;8.98;2.20;;;3.40;8.30;;;;;;5052826;28;20195;-69
2024/03/28 04:52:41;;;;;;;3.38;2.10;;;3.40;7.80;;;;;;5054382;28;20208;-69
2024/03/28 04:55:07;;;;;;;2.40;1.60;;;3.50;7.20;;;;;;5054404;28;20170;-70
2024/03/28 04:57:33;;;;;;;3.42;2.22;;;3.50;7.80;;;;;;5053053;28;20194;-71
2024/03/28 05:00:00;;;;;;;3.38;2.55;;;3.40;7.30;;;;;;5054287;28;20579;-70
2024/03/28 05:02:25;;;;;;;6.15;2.38;;;3.50;7.20;;;;;;5054683;28;20176;-71
2024/03/28 05:04:51;;;;;;;4.47;2.60;;;3.50;6.80;;;;;;5053614;28;20178;-71
2024/03/28 05:07:17;;;;;;;3.13;2.07;;;3.60;7.10;;;;;;5052813;28;20774;-70
2024/03/28 05:09:45;;;;;;;3.40;2.40;;;3.60;7.70;;;;;;5053996;28;20179;-71
2024/03/28 05:12:11;;;;;;;4.10;2.63;;;3.60;7.30;;;;;;5054003;28;20539;-69
2024/03/28 05:14:37;;;;;;;3.80;2.60;;;3.70;7.20;;;;;;5053051;28;20188;-70
2024/03/28 05:17:03;;;;;;;3.00;2.00;;;3.70;6.40;;;;;;5052499;28;20461;-70
2024/03/28 05:19:28;;;;;;;4.40;2.87;;;3.70;6.70;;;;;;5053714;28;20544;-71
2024/03/28 05:21:54;;;;;;;4.20;3.03;;;3.70;6.90;;;;;;5052854;28;20413;-70
2024/03/28 05:24:20;;;;;;;3.97;2.50;;;3.70;6.80;;;;;;5053867;28;20176;-70
2024/03/28 05:26:45;;;;;;;3.80;3.07;;;3.80;7.80;;;;;;5052437;28;20224;-70
2024/03/28 05:29:12;;;;;;;4.47;3.13;;;3.80;8.90;;;;;;5053617;28;20566;-70
2024/03/28 05:31:37;;;;;;;4.50;3.30;;;3.90;8.20;;;;;;5053858;28;20182;-71
2024/03/28 05:34:03;;;;;;;5.47;3.60;;;4.10;8.20;;;;;;5054398;28;20181;-70
2024/03/28 05:36:28;;;;;;;4.90;3.40;;;4.20;8.00;;;;;;5054107;28;20212;-70
2024/03/28 05:38:56;;;;;;;7.53;4.00;;;4.20;7.30;;;;;;5054753;28;20314;-69
2024/03/28 05:41:22;;;;;;;3.90;3.05;;;4.20;7.30;;;;;;5052560;28;20250;-71
2024/03/28 05:43:48;;;;;;;4.13;2.77;;;4.20;7.50;;;;;;5053682;28;20263;-70
2024/03/28 05:46:14;;;;;;;4.30;2.27;;;4.30;6.80;;;;;;5053466;28;20206;-69
2024/03/28 05:48:39;;;;;;;4.97;2.40;;;4.60;5.30;;;;;;5053211;28;20406;-69
2024/03/28 05:51:05;;;;;;;4.40;2.40;;;4.80;3.40;;;;;;5053287;28;20442;-69
2024/03/28 05:53:30;;;;;;;4.40;2.47;;;4.90;2.70;;;;;;5037723;28;20487;-68
2024/03/28 05:55:56;;;;;;;5.40;2.70;;;5.10;2.80;;;;;;5031928;28;20260;-69
2024/03/28 05:58:21;;;;;;;4.30;2.83;;;5.10;1.80;;;;;;5031772;28;20703;-70
2024/03/28 06:00:47;;;;;;;3.90;2.13;;;5.30;1.50;;;;;;5033343;28;20211;-68
2024/03/28 06:03:12;;;;;;;3.90;2.80;;;5.60;1.70;;;;;;5033227;28;20171;-69
2024/03/28 06:05:38;;;;;;;4.17;3.13;;;5.90;1.00;;;;;;5031641;28;20541;-68
2024/03/28 06:08:04;;;;;;;5.90;3.73;;;7.60;1.00;;;;;;5031648;28;20299;-69
2024/03/28 06:10:30;;;;;;;3.20;2.33;;;9.10;1.00;;;;;;5033028;28;20548;-70
2024/03/28 06:12:55;;;;;;;8.17;2.87;;;9.30;1.00;;;;;;5031702;28;20456;-70
2024/03/28 06:15:21;;;;;;;4.23;2.63;;;8.70;1.00;;;;;;5031606;28;20207;-70
2024/03/28 06:17:46;;;;;;;4.47;2.40;;;8.10;1.00;;;;;;5032691;28;20196;-69
2024/03/28 06:20:12;;;;;;;3.83;2.90;;;7.80;1.00;;;;;;5031569;28;20187;-69
2024/03/28 06:22:38;;;;;;;4.73;3.30;;;7.50;1.00;;;;;;5031771;28;20240;-69
2024/03/28 06:25:07;;;;;;;7.40;3.30;;;7.10;1.00;;;;;;5031677;28;20258;-69
2024/03/28 06:27:32;;;;;;;3.50;2.80;;;6.80;1.00;;;;;;5031151;28;20952;-70
2024/03/28 06:29:58;;;;;;;3.93;3.17;;;6.50;1.00;;;;;;5031429;28;20414;-70
2024/03/28 06:32:29;;;;;;;5.87;3.30;;;6.40;1.00;;;;;;5032796;28;20266;-70
2024/03/28 06:34:56;;;;;;;3.87;2.77;;;6.30;1.00;;;;;;5031221;28;20230;-70
2024/03/28 06:37:22;;;;;;;5.10;3.00;;;6.50;1.00;;;;;;5031311;28;20474;-70
2024/03/28 06:39:54;;;;;;;4.27;2.73;;;6.70;1.00;;;;;;5031147;28;20438;-70
2024/03/28 06:42:19;;;;;;;7.10;2.90;;;6.80;1.00;;;;;;5031645;28;20433;-74
2024/03/28 06:44:49;;;;;;;3.67;2.80;;;6.50;1.00;;;;;;5032464;28;20896;-70
2024/03/28 06:47:15;;;;;;;8.50;3.60;;;6.60;1.00;;;;;;5031087;28;20202;-70
2024/03/28 06:49:41;;;;;;;5.10;3.20;;;6.60;1.00;;;;;;5033267;28;20428;-70
2024/03/28 06:52:07;;;;;;;4.13;3.10;;;6.60;1.00;;;;;;5033175;28;20497;-70
2024/03/28 06:54:33;;;;;;;6.83;4.60;;;6.50;1.00;;;;;;5037675;28;20808;-70
2024/03/28 06:56:58;;;;;;;4.23;3.10;;;6.50;1.00;;;;;;5042347;28;20470;-72
2024/03/28 06:59:24;;;;;;;5.40;3.40;;;6.30;1.00;;;;;;5038451;28;20876;-70
2024/03/28 07:01:54;;;;;;;5.00;3.27;;;6.20;1.00;;;;;;5032296;28;20653;-70
2024/03/28 07:04:19;;;;;;;4.17;2.90;;;6.00;1.00;;;;;;5032984;28;20417;-69
2024/03/28 07:06:45;;;;;;;4.10;3.03;;;6.00;1.00;;;;;;5032777;28;20929;-69
2024/03/28 07:09:11;;;;;;;5.60;3.20;;;5.90;1.00;;;;;;5032074;28;20182;-69
2024/03/28 07:11:36;;;;;;;4.53;3.30;;;6.00;1.10;;;;;;5031362;28;20183;-68
2024/03/28 07:14:05;;;;;;;3.70;2.70;;;6.00;2.60;;;;;;5031935;28;20421;-69
2024/03/28 07:16:32;;;;;;;7.60;4.07;;;6.00;4.30;;;;;;5033542;28;20583;-70
2024/03/28 07:18:57;;;;;;;3.83;3.00;;;6.00;6.20;;;;;;5031285;28;20417;-71
2024/03/28 07:21:23;;;;;;;5.23;3.17;;;5.80;4.80;;;;;;5032376;28;20425;-70
2024/03/28 07:23:50;;;;;;;5.13;3.13;;;5.70;5.60;;;;;;5032231;28;20186;-69
2024/03/28 07:26:16;;;;;;;4.67;3.27;;;5.90;7.00;;;;;;5030344;28;20238;-70
2024/03/28 07:28:42;;;;;;;5.27;2.80;;;6.10;5.70;;;;;;5031845;28;20446;-70
2024/03/28 07:31:07;;;;;;;8.03;3.20;;;6.10;6.20;;;;;;5032370;28;20183;-70
2024/03/28 07:33:33;;;;;;;4.43;2.97;;;6.20;5.90;;;;;;5031429;28;20182;-70
2024/03/28 07:35:58;;;;;;;13.60;2.40;;;6.30;7.10;;;;;;5031704;28;20298;-70
2024/03/28 07:38:24;;;;;;;4.50;3.03;;;6.50;8.20;;;;;;5031801;28;20273;-70
2024/03/28 07:40:50;;;;;;;4.43;3.70;;;6.60;7.40;;;;;;5030381;28;20207;-70
2024/03/28 07:43:17;;;;;;;5.17;3.67;;;6.80;8.00;;;;;;5031690;28;20682;-70
2024/03/28 07:45:43;;;;;;;4.03;3.00;;;7.00;7.00;;;;;;5031552;28;20444;-70
2024/03/28 07:48:10;;;;;;;3.00;2.37;;;7.10;9.00;;;;;;5031538;28;20836;-70
2024/03/28 07:50:36;;;;;;;5.40;3.40;;;7.30;6.90;;;;;;5031856;28;20429;-70
2024/03/28 07:53:02;;;;;;;4.00;2.97;;;7.30;8.20;;;;;;5032241;28;20425;-70
2024/03/28 07:55:28;;;;;;;3.97;2.60;;;7.80;9.00;;;;;;5032565;28;20821;-70
2024/03/28 07:57:54;;;;;;;2.93;1.60;;;8.00;7.30;;;;;;5037630;28;20192;-71
2024/03/28 08:00:21;;;;;;;5.43;2.90;;;8.00;7.50;;;;;;5035769;28;20180;-70
2024/03/28 08:02:50;;;;;;;5.83;2.50;;;8.20;7.90;;;;;;5037785;28;20422;-70
2024/03/28 08:05:17;;;;;;;2.13;1.17;;;8.20;7.50;;;;;;5036720;28;20444;-70
2024/03/28 08:07:44;;;;;;;2.67;1.20;;;8.00;6.30;;;;;;5032191;28;20828;-71
2024/03/28 08:10:10;;;;;;;2.07;0.60;;;8.00;7.90;;;;;;5034329;28;20419;-70
2024/03/28 08:12:37;;;;;;;1.83;0.70;;;8.00;8.00;;;;;;5036033;28;20506;-71
2024/03/28 08:15:05;;;;;;;1.83;0.67;;;8.10;9.20;;;;;;5037254;28;20410;-72
2024/03/28 08:17:31;;;;;;;1.90;0.80;;;8.10;8.20;;;;;;5037276;28;20522;-70
2024/03/28 08:19:57;;;;;;;1.80;0.90;;;8.20;9.00;;;;;;5035071;28;20418;-70
2024/03/28 08:22:23;;;;;;;1.67;0.67;;;8.20;9.30;;;;;;5030563;28;20183;-69
2024/03/28 08:24:48;;;;;;;1.50;0.50;;;8.30;9.30;;;;;;5031641;28;20408;-70
2024/03/28 08:27:14;;;;;;;2.27;0.60;;;;;;;;;;5030241;28;20204;-70
2024/03/28 08:29:40;;;;;;;1.60;0.70;;;8.80;7.30;;;;;;5031647;28;20271;-70
2024/03/28 08:32:06;;;;;;;1.70;0.70;;;8.80;5.80;;;;;;5033166;28;20457;-70
2024/03/28 08:34:31;;;;;;;1.90;0.70;;;8.80;5.20;;;;;;5034379;28;20182;-70
2024/03/28 08:36:57;;;;;;;1.90;0.53;;;8.70;5.10;;;;;;5032151;28;20491;-70
2024/03/28 08:39:24;;;;;;;2.03;0.80;;;8.70;6.20;;;;;;5032148;28;20558;-70
2024/03/28 08:41:52;;;;;;;1.50;0.50;;;8.80;7.40;;;;;;5035098;28;20174;-70
2024/03/28 08:44:18;;;;;;;1.60;0.57;;;8.70;6.50;;;;;;5034899;28;20419;-69
2024/03/28 08:46:44;;;;;;;1.40;0.40;;;8.70;4.40;;;;;;5033432;28;20866;-69
2024/03/28 08:49:09;;;;;;;1.70;0.60;;;8.60;1.00;;;;;;5033157;28;20514;-69
2024/03/28 08:51:36;;;;;;;1.60;0.40;;;8.50;1.80;;;;;;5034499;28;20316;-69
2024/03/28 08:54:05;;;;;;;1.50;0.50;;;8.70;2.70;;;;;;5034533;28;20661;-70
2024/03/28 08:56:35;;;;;;;1.80;0.60;;;8.60;1.00;;;;;;5034358;28;21055;-69
2024/03/28 08:59:03;;;;;;;1.40;0.50;;;8.80;1.00;;;;;;5032953;28;20424;-69
2024/03/28 09:01:29;;;;;;;1.97;0.70;;;8.70;1.00;;;;;;5033336;28;20428;-69
2024/03/28 09:03:55;;;;;;;1.50;0.47;;;8.70;1.00;;;;;;5034574;28;20958;-69
2024/03/28 09:06:21;;;;;;;1.67;0.70;;;8.60;1.00;;;;;;5033165;28;20453;-69
2024/03/28 09:08:47;;;;;;;1.60;0.63;;;8.80;1.00;;;;;;5033225;28;20271;-69
2024/03/28 09:11:13;;;;;;;1.60;0.60;;;8.80;1.00;;;;;;5034493;28;20462;-69
2024/03/28 09:13:39;;;;;;;1.40;0.40;;;8.80;1.00;;;;;;5035009;28;20274;-68
2024/03/28 09:16:08;;;;;;;1.77;0.50;;;8.60;1.00;;;;;;5035084;28;20508;-68
2024/03/28 09:18:34;;;;;;;1.80;0.70;;;8.80;1.00;;;;;;5032611;28;20187;-68
2024/03/28 09:21:08;;;;;;;1.60;0.60;;;9.00;1.00;;;;;;5048444;28;20451;-69
2024/03/28 09:23:38;;;;;;;1.50;0.50;;;9.10;1.00;;;;;;5052270;28;20531;-69
2024/03/28 09:26:04;;;;;;;1.83;0.90;;;9.00;1.00;;;;;;5039608;28;20506;-67
2024/03/28 09:28:30;;;;;;;1.60;0.50;;;8.90;1.00;;;;;;5040297;28;20444;-68
2024/03/28 09:30:56;;;;;;;1.60;0.50;;;8.80;1.00;;;;;;5034305;28;20431;-69
2024/03/28 09:33:21;;;;;;;1.50;0.40;;;8.70;1.00;;;;;;5033036;28;20433;-68
2024/03/28 09:35:47;;;;;;;1.50;0.50;;;8.60;1.00;;;;;;5028611;28;20539;-69
2024/03/28 09:38:13;;;;;;;1.70;0.83;;;8.60;1.00;;;;;;5068907;23;20711;-68
2024/03/28 09:40:52;;;;;;;2.53;0.50;;;8.90;1.00;;;;;;5053196;28;20217;-69
2024/03/28 09:43:18;;;;;;;1.60;0.60;;;9.00;1.00;;;;;;5053392;28;20217;-69
2024/03/28 09:45:44;;;;;;;1.40;0.40;;;9.00;1.00;;;;;;5053160;28;20440;-69
2024/03/28 09:48:16;;;;;;;1.60;0.57;;;8.90;1.00;;;;;;5052990;28;20440;-69
2024/03/28 09:50:43;;;;;;;2.10;0.60;;;8.70;1.00;;;;;;5052556;28;20518;-69
2024/03/28 09:53:10;;;;;;;1.70;0.50;;;8.90;1.00;;;;;;5053016;28;20412;-70
2024/03/28 09:55:39;;;;;;;1.60;0.67;;;8.80;1.00;;;;;;5053311;28;20467;-69
2024/03/28 09:58:05;;;;;;;3.30;0.87;;;9.00;1.00;;;;;;5052462;28;20789;-69
2024/03/28 10:00:32;;;;;;;1.60;0.70;;;9.00;1.00;;;;;;5052933;28;20794;-69
2024/03/28 10:03:02;;;;;;;1.70;0.63;;;9.20;1.00;;;;;;5053151;28;20473;-69
2024/03/28 10:05:29;;;;;;;1.97;0.70;;;9.10;1.00;;;;;;5052784;28;20968;-68
2024/03/28 10:07:55;;;;;;;2.17;0.70;;;9.40;1.00;;;;;;5053440;28;20566;-69
2024/03/28 10:10:24;;;;;;;1.60;0.70;;;9.80;1.00;;;;;;5053511;28;20416;-68
2024/03/28 10:12:51;;;;;;;1.60;0.60;;;10.10;1.00;;;;;;5053722;28;20868;-70
2024/03/28 10:15:16;;;;;;;1.70;0.60;;;9.90;1.00;;;;;;5051619;28;20767;-70
2024/03/28 10:17:42;;;;;;;1.50;0.47;;;10.10;1.00;;;;;;5052862;28;20428;-68
2024/03/28 10:20:10;;;;;;;1.57;0.57;;;10.10;1.00;;;;;;5052961;28;20175;-68
2024/03/28 10:22:52;;;;;;;2.70;0.93;;;10.00;1.00;;;;;;5053035;28;20644;-70
2024/03/28 10:25:25;;;;;;;1.80;0.80;;;10.00;1.00;;;;;;5052780;28;20462;-70
2024/03/28 10:27:57;;;;;;;1.60;0.70;;;10.40;1.00;;;;;;5052870;28;20742;-70
2024/03/28 10:30:26;;;;;;;1.53;0.70;;;10.70;1.00;;;;;;5053069;28;20432;-70
2024/03/28 10:33:04;;;;;;;1.83;0.80;;;10.60;1.00;;;;;;5052761;28;20445;-69
2024/03/28 10:35:31;;;;;;;1.63;0.67;;;10.60;1.00;;;;;;5052756;28;20506;-68
2024/03/28 10:38:18;;;;;;;1.80;0.60;;;10.20;1.00;;;;;;5052331;28;20455;-69
2024/03/28 10:40:44;;;;;;;2.17;0.80;;;10.20;1.00;;;;;;5053275;28;20937;-68
2024/03/28 10:43:13;;;;;;;4.67;1.17;;;9.80;1.00;;;;;;5052374;28;20409;-69
2024/03/28 10:45:39;;;;;;;1.90;0.70;;;10.00;1.00;;;;;;5051252;28;20188;-70
2024/03/28 10:48:13;;;;;;;2.53;1.17;;;10.40;1.00;;;;;;5052178;28;20433;-69
2024/03/28 10:51:06;;;;;;;1.60;0.60;;;10.70;1.00;;;;;;5052623;28;20641;-70
2024/03/28 10:53:43;;;;;;;1.80;0.80;;;10.90;1.00;;;;;;5052524;28;20428;-69
2024/03/28 10:56:13;;;;;;;1.70;0.67;;;10.70;1.00;;;;;;5052318;28;20456;-69
2024/03/28 10:58:40;;;;;;;1.60;0.70;;;10.60;1.00;;;;;;5053030;28;20400;-69
2024/03/28 11:01:08;;;;;;;4.07;2.30;;;10.80;1.00;;;;;;5052642;28;20413;-69
2024/03/28 11:03:34;;;;;;;7.70;2.90;;;10.80;1.00;;;;;;5052024;28;20420;-68
2024/03/28 11:06:00;;;;;;;4.10;1.30;;;10.80;1.00;;;;;;5051509;28;21022;-69
2024/03/28 11:08:30;;;;;;;1.60;0.70;;;10.80;1.00;;;;;;5052429;28;20413;-69
2024/03/28 11:10:59;;;;;;;2.53;0.90;;;11.20;1.00;;;;;;5052617;28;20424;-69
2024/03/28 11:13:26;;;;;;;1.97;1.13;;;11.60;1.00;;;;;;5052288;28;20429;-68
2024/03/28 11:16:13;;;;;;;2.90;1.13;;;11.60;1.00;;;;;;5050807;28;20998;-69
2024/03/28 11:18:39;;;;;;;9.30;1.10;;;11.80;1.00;;;;;;5051574;28;20418;-68
2024/03/28 11:21:06;;;;;;;7.33;2.07;;;11.80;1.00;;;;;;5050767;28;20417;-68
2024/03/28 11:23:33;;;;;;;2.10;1.30;;;11.60;1.00;;;;;;5051877;28;20417;-71
2024/03/28 11:26:07;;;;;;;3.50;0.90;;;11.60;1.00;;;;;;5052015;28;20485;-68
2024/03/28 11:28:39;;;;;;;1.70;0.90;;;11.70;1.00;;;;;;5051558;28;20486;-68
2024/03/28 11:31:05;;;;;;;2.27;0.80;;;11.70;1.00;;;;;;5051951;28;20576;-69
2024/03/28 11:33:31;;;;;;;2.10;1.00;;;11.90;1.00;;;;;;5051728;28;20416;-68
2024/03/28 11:35:58;;;;;;;5.13;1.53;;;12.30;1.00;;;;;;5051535;28;20963;-72
2024/03/28 11:38:24;;;;;;;4.13;1.40;;;12.30;1.00;;;;;;5051516;28;20214;-70
2024/03/28 11:40:50;;;;;;;2.10;1.30;;;12.00;1.00;;;;;;5051758;28;20780;-70
2024/03/28 11:43:17;;;;;;;2.00;1.20;;;11.70;1.00;;;;;;5051832;28;20167;-70
2024/03/28 11:45:50;;;;;;;3.57;1.67;;;11.50;1.00;;;;;;5049913;28;20512;-70
2024/03/28 11:48:16;;;;;;;2.40;1.10;;;11.30;1.00;;;;;;5051182;28;20440;-69
2024/03/28 11:50:42;;;;;;;1.70;0.97;;;12.10;1.00;;;;;;5051716;28;20418;-69
2024/03/28 11:53:08;;;;;;;1.97;1.00;;;12.20;1.00;;;;;;5050229;28;20425;-70
2024/03/28 11:55:45;;;;;;;2.03;1.10;;;11.80;1.00;;;;;;5051278;28;20613;-70
2024/03/28 11:58:23;;;;;;;2.57;1.40;;;12.20;1.00;;;;;;5051356;28;20429;-69
2024/03/28 12:00:49;;;;;;;1.70;1.10;;;12.80;1.00;;;;;;5051433;28;20405;-68
2024/03/28 12:03:15;;;;;;;3.30;1.70;;;12.70;1.00;;;;;;5051400;28;20410;-69
2024/03/28 12:05:41;;;;;;;1.80;1.10;;;13.20;1.00;;;;;;5051398;28;20416;-68
2024/03/28 12:08:07;;;;;;;1.63;1.00;;;13.10;1.00;;;;;;5051390;28;20206;-69
2024/03/28 12:10:33;;;;;;;1.70;1.00;;;13.10;1.00;;;;;;5051747;28;20417;-68
2024/03/28 12:13:02;;;;;;;2.00;1.13;;;13.10;1.00;;;;;;5052835;28;20479;-69
2024/03/28 12:15:28;;;;;;;2.17;1.23;;;13.10;1.00;;;;;;5055361;28;20428;-68
2024/03/28 12:17:57;;;;;;;2.00;1.00;;;12.80;1.00;;;;;;5054852;28;20429;-68
2024/03/28 12:20:23;;;;;;;1.60;1.00;;;12.50;1.00;;;;;;5054923;28;20174;-69
2024/03/28 12:23:03;;;;;;;2.00;1.10;;;12.60;1.00;;;;;;5054814;28;20928;-69
2024/03/28 12:25:30;;;;;;;2.33;1.10;;;12.90;1.00;;;;;;5055031;28;20446;-70
2024/03/28 12:28:00;;;;;;;2.10;1.10;;;12.10;1.00;;;;;;5054566;28;20434;-69
2024/03/28 12:30:27;;;;;;;1.67;0.80;;;11.60;1.00;;;;;;5054818;28;20421;-69
2024/03/28 12:33:06;;;;;;;1.50;0.60;;;10.80;1.00;;;;;;5054804;28;20544;-69
2024/03/28 12:35:35;;;;;;;1.40;0.50;;;9.80;1.00;;;;;;5054512;28;20424;-69
2024/03/28 12:38:03;;;;;;;1.87;0.77;;;8.90;1.00;;;;;;5054454;28;20476;-69
2024/03/28 12:40:30;;;;;;;1.77;0.50;;;8.70;1.00;;;;;;5054543;28;20853;-70
2024/03/28 12:42:56;;;;;;;1.50;0.50;;;8.80;1.00;;;;;;5054411;28;20733;-70
2024/03/28 12:45:23;;;;;;;2.07;0.60;;;9.30;1.00;;;;;;5054402;28;20565;-68
2024/03/28 12:47:50;;;;;;;1.70;0.70;;;9.60;1.00;;;;;;5054520;28;20282;-68
2024/03/28 12:50:18;;;;;;;1.63;0.60;;;9.70;1.00;;;;;;5054873;28;20826;-68
2024/03/28 12:52:46;;;;;;;1.60;0.50;;;9.70;1.00;;;;;;5052810;28;20423;-68
2024/03/28 12:55:11;;;;;;;1.50;0.50;;;9.70;1.00;;;;;;5054496;28;20781;-68
2024/03/28 12:57:37;;;;;;;2.00;0.70;;;9.50;1.00;;;;;;5054017;28;20465;-68
2024/03/28 13:00:03;;;;;;;1.40;0.50;;;9.50;1.00;;;;;;5053501;28;20189;-68
2024/03/28 13:02:28;;;;;;;1.63;0.60;;;9.70;1.00;;;;;;5050908;28;20303;-67
2024/03/28 13:04:54;;;;;;;2.87;0.70;;;9.90;1.00;;;;;;5053726;28;20231;-67
2024/03/28 13:07:19;;;;;;;1.40;0.47;;;10.00;1.00;;;;;;5052087;28;20718;-68